Johnstown, NE

9:50 PM CST on December 02, 2016 (GMT -0600)
Ainsworth Municipal

Weather History for KANW - February, 2014

Change the Weather History Date:

Friday, February 28, 2014

  Actual Average Record
Temperature  
Mean Temperature 18 °F -  
Max Temperature 26 °F 35 °F 77 °F (2006)
Min Temperature 10 °F 17 °F -13 °F (2009)
Degree Days  
Heating Degree Days 47    
Moisture  
Dew Point 13 °F    
Average Humidity 78    
Maximum Humidity 83    
Minimum Humidity 69    
Precipitation  
Precipitation 0.00 in - - ()
Sea Level Pressure  
Sea Level Pressure 29.83 in    
Wind  
Wind Speed 14 mph (NNW)    
Max Wind Speed 29 mph    
Max Gust Speed 37 mph    
Visibility 8 miles    
Events Snow    
Averages and records for this station are not official NWS values.
T = Trace of Precipitation, MM = Missing Value Source: NWS Daily Summary

Daily Weather History Graph

Daily Weather History Graph

Search for Another Location

Airport or City:

Trip Planner

Search our weather history database for the weather conditions in past years. The results will help you decide how hot, cold, wet, or windy it might be!

Date:

Astronomy

Feb. 28, 2014 Rise Set
Actual Time 7:17 AM CST 6:28 PM CST
Civil Twilight 6:48 AM CST 6:56 PM CST
Nautical Twilight 6:16 AM CST 7:29 PM CST
Astronomical Twilight 5:43 AM CST 8:02 PM CST
Moon 6:33 AM CST (2/28) 6:07 PM CST (2/28)
Length of Visible Light 12h 08m
Length of Day
11h 11m
Waning Crescent, 1% of the Moon is Illuminated
Feb 28
Waning Crescent
Mar 1
New
Mar 8
First Quarter
Mar 16
Full
Mar 23
Last Quarter

Hourly Weather History & Observations

Time (CST) Temp. Windchill Dew Point Humidity Pressure Visibility Wind Dir Wind Speed Gust Speed Precip Events Conditions
12:15 AM 22.1 °F 10.6 °F 14.9 °F 74% 29.62 in 10.0 mi South 11.5 mph - N/A   Clear
12:35 AM 21.7 °F 10.2 °F 14.9 °F 75% 29.61 in 10.0 mi South 11.5 mph - N/A   Clear
12:55 AM 21.2 °F 10.9 °F 14.7 °F 76% 29.61 in 10.0 mi South 9.2 mph - N/A   Clear
1:15 AM 19.6 °F 14.5 °F 14.0 °F 79% 29.61 in 10.0 mi SSE 3.5 mph - N/A   Clear
1:35 AM 19.0 °F 11.1 °F 14.0 °F 81% 29.60 in 10.0 mi SSE 5.8 mph - N/A   Clear
1:55 AM 19.2 °F 8.4 °F 14.0 °F 80% 29.59 in 10.0 mi South 9.2 mph - N/A   Clear
2:15 AM 18.9 °F 8.0 °F 13.8 °F 81% 29.58 in 10.0 mi South 9.2 mph - N/A   Clear
2:35 AM 19.2 °F 7.0 °F 14.0 °F 80% 29.57 in 10.0 mi South 11.5 mph - N/A   Clear
2:55 AM 19.0 °F 9.0 °F 14.0 °F 81% 29.57 in 10.0 mi South 8.1 mph - N/A   Clear
3:15 AM 18.5 °F 5.5 °F 13.8 °F 82% 29.56 in 10.0 mi South 12.7 mph - N/A   Clear
3:35 AM 19.2 °F 6.4 °F 14.2 °F 81% 29.55 in 10.0 mi South 12.7 mph - N/A   Clear
3:55 AM 19.9 °F 6.7 °F 14.5 °F 80% 29.55 in 10.0 mi SSW 13.8 mph - N/A   Clear
4:15 AM 20.1 °F 7.5 °F 14.7 °F 80% 29.55 in 10.0 mi SSW 12.7 mph 18.4 mph N/A   Clear
4:35 AM 20.5 °F 8.6 °F 14.9 °F 79% 29.55 in 10.0 mi SSW 11.5 mph - N/A   Clear
4:55 AM 21.0 °F 9.3 °F 15.3 °F 78% 29.54 in 10.0 mi SSW 11.5 mph - N/A   Clear
5:15 AM 21.2 °F 10.1 °F 15.4 °F 78% 29.54 in 10.0 mi SSW 10.4 mph - N/A   Clear
5:35 AM 21.2 °F 12.6 °F 15.4 °F 78% 29.55 in 10.0 mi SW 6.9 mph - N/A   Clear
5:55 AM 21.0 °F 12.4 °F 15.4 °F 79% 29.56 in 10.0 mi SW 6.9 mph - N/A   Clear
6:15 AM 21.0 °F 11.4 °F 15.6 °F 80% 29.57 in 10.0 mi SW 8.1 mph - N/A   Clear
6:35 AM 20.3 °F 11.5 °F 15.4 °F 81% 29.59 in 10.0 mi SW 6.9 mph - N/A   Clear
6:55 AM 19.9 °F 11.1 °F 15.3 °F 82% 29.61 in 10.0 mi West 6.9 mph - N/A   Clear
7:15 AM 21.0 °F 10.6 °F 16.7 °F 83% 29.61 in 10.0 mi West 9.2 mph - N/A   Clear
7:35 AM 21.9 °F 11.7 °F 17.2 °F 82% 29.62 in 10.0 mi West 9.2 mph - N/A   Clear
7:55 AM 23.0 °F 11.1 °F 18.1 °F 82% 29.64 in 10.0 mi NW 12.7 mph - N/A   Clear
8:15 AM 25.7 °F 11.5 °F 20.3 °F 80% 29.67 in 10.0 mi NW 20.7 mph 27.6 mph N/A   Clear
8:35 AM 24.8 °F 9.3 °F 20.3 °F 83% 29.69 in 10.0 mi NNW 24.2 mph 29.9 mph N/A   Mostly Cloudy
8:55 AM 23.9 °F 7.8 °F 19.4 °F 83% 29.71 in 10.0 mi NNW 25.3 mph 33.4 mph N/A   Overcast
9:15 AM 23.9 °F 9.1 °F 19.2 °F 82% 29.74 in 10.0 mi NNW 20.7 mph 32.2 mph N/A   Overcast
9:35 AM 23.9 °F 9.5 °F 19.2 °F 82% 29.75 in 10.0 mi NNW 19.6 mph 33.4 mph N/A   Overcast
9:55 AM 23.9 °F 8.4 °F 18.9 °F 81% 29.77 in 10.0 mi NNW 23.0 mph 29.9 mph N/A   Overcast
10:15 AM 24.3 °F 7.7 °F 19.2 °F 81% 29.78 in 10.0 mi NNW 27.6 mph 33.4 mph N/A   Overcast
10:35 AM 23.9 °F 7.2 °F 18.5 °F 80% 29.80 in 10.0 mi North 27.6 mph 36.8 mph N/A   Overcast
10:55 AM 24.4 °F 8.5 °F 18.5 °F 78% 29.82 in 10.0 mi NNW 25.3 mph 32.2 mph N/A   Overcast
11:15 AM 25.3 °F 9.1 °F 18.9 °F 76% 29.83 in 10.0 mi North 27.6 mph 34.5 mph N/A   Overcast
11:35 AM 26.1 °F 10.7 °F 18.9 °F 74% 29.85 in 10.0 mi North 25.3 mph 34.5 mph N/A   Overcast
11:55 AM 26.1 °F 9.8 °F 18.5 °F 73% 29.85 in 10.0 mi North 28.8 mph 34.5 mph N/A   Overcast
12:15 PM 26.2 °F 11.2 °F 18.3 °F 72% 29.87 in 10.0 mi North 24.2 mph 32.2 mph N/A   Mostly Cloudy
12:35 PM 26.1 °F 12.7 °F 18.5 °F 73% 29.88 in 10.0 mi North 18.4 mph 29.9 mph N/A   Overcast
12:55 PM 25.3 °F 11.0 °F 19.6 °F 79% 29.89 in 7.0 mi North 20.7 mph 26.5 mph N/A   Overcast
1:15 PM 24.8 °F 9.3 °F 19.8 °F 81% 29.90 in 4.0 mi NNW 24.2 mph 29.9 mph N/A Snow Light Snow
1:35 PM 23.0 °F 7.6 °F 18.1 °F 82% 29.91 in 1.5 mi NNW 21.9 mph 31.1 mph N/A Snow Light Snow
1:55 PM 21.9 °F 5.5 °F 17.4 °F 83% 29.91 in 0.8 mi NNW 24.2 mph 31.1 mph N/A Snow Light Snow
2:15 PM 20.8 °F 4.7 °F 16.5 °F 83% 29.92 in 1.5 mi NNW 21.9 mph 28.8 mph N/A Snow Light Snow
2:35 PM 19.4 °F 2.5 °F 14.0 °F 80% 29.94 in 2.5 mi North 23.0 mph 31.1 mph N/A Snow Light Snow
2:55 PM 19.4 °F 1.8 °F 14.5 °F 81% 29.95 in 0.5 mi NNW 25.3 mph - N/A Snow Light Snow
3:15 PM 18.9 °F 1.4 °F 13.1 °F 78% 29.96 in 5.0 mi North 24.2 mph 29.9 mph N/A Snow Light Snow
3:35 PM 18.5 °F 1.3 °F 12.2 °F 76% 29.96 in 5.0 mi North 23.0 mph 27.6 mph N/A Snow Light Snow
3:55 PM 18.3 °F 1.0 °F 12.0 °F 76% 29.96 in 3.0 mi North 23.0 mph 28.8 mph N/A Snow Light Snow
4:15 PM 18.3 °F 1.0 °F 12.0 °F 76% 29.96 in 3.0 mi North 23.0 mph 26.5 mph N/A Snow Light Snow
4:35 PM 17.2 °F 0.4 °F 11.8 °F 79% 29.96 in 2.0 mi North 20.7 mph 26.5 mph N/A Snow Light Snow
4:55 PM 17.1 °F 0.1 °F 10.8 °F 76% 29.97 in 3.0 mi North 20.7 mph 25.3 mph N/A Snow Light Snow
5:15 PM 16.0 °F -0.4 °F 10.2 °F 78% 29.97 in 5.0 mi North 18.4 mph 24.2 mph N/A Snow Light Snow
5:35 PM 16.2 °F 0.8 °F 10.4 °F 78% 29.99 in 7.0 mi North 16.1 mph - N/A Snow Light Snow
5:55 PM 15.6 °F -0.4 °F 9.3 °F 76% 30.01 in 7.0 mi North 17.3 mph 21.9 mph N/A   Overcast
6:15 PM 15.6 °F -0.9 °F 8.8 °F 74% 30.01 in 10.0 mi North 18.4 mph 24.2 mph N/A Snow Light Snow
6:35 PM 15.4 °F -2.4 °F 6.8 °F 69% 30.02 in 10.0 mi North 21.9 mph 27.6 mph N/A   Overcast
6:55 PM 14.7 °F -1.6 °F 6.1 °F 69% 30.05 in 10.0 mi North 17.3 mph 27.6 mph N/A   Overcast
7:15 PM 14.5 °F -2.3 °F 6.3 °F 70% 30.05 in 10.0 mi North 18.4 mph - N/A   Overcast
7:35 PM 14.4 °F -1.0 °F 6.3 °F 70% 30.05 in 10.0 mi North 15.0 mph - N/A   Overcast
7:55 PM 14.0 °F -2.5 °F 5.9 °F 70% 30.06 in 10.0 mi North 17.3 mph 23.0 mph N/A   Overcast
8:15 PM 13.8 °F -4.5 °F 6.3 °F 72% 30.07 in 10.0 mi North 21.9 mph - N/A   Overcast
8:35 PM 12.9 °F -3.9 °F 6.8 °F 77% 30.07 in 10.0 mi North 17.3 mph 24.2 mph N/A Snow Light Snow
8:55 PM 12.6 °F -1.4 °F 7.0 °F 78% 30.09 in 10.0 mi North 11.5 mph - N/A Snow Light Snow
9:15 PM 12.7 °F -1.8 °F 6.6 °F 77% 30.10 in 10.0 mi North 12.7 mph - N/A Snow Light Snow
9:35 PM 12.4 °F -2.9 °F 5.7 °F 75% 30.11 in 10.0 mi North 13.8 mph - N/A   Overcast
9:55 PM 12.2 °F -4.8 °F 5.4 °F 74% 30.12 in 10.0 mi North 17.3 mph - N/A   Overcast
10:15 PM 11.8 °F -5.3 °F 5.2 °F 75% 30.12 in 10.0 mi North 17.3 mph - N/A   Overcast
10:35 PM 11.7 °F -4.4 °F 5.2 °F 75% 30.12 in 10.0 mi North 15.0 mph 23.0 mph N/A   Overcast
10:55 PM 11.3 °F -3.6 °F 5.7 °F 78% 30.14 in 10.0 mi North 12.7 mph - N/A   Overcast
11:15 PM 11.3 °F -2.9 °F 5.9 °F 79% 30.16 in 10.0 mi North 11.5 mph - N/A   Overcast
11:35 PM 10.9 °F -2.6 °F 5.7 °F 79% 30.17 in 7.0 mi North 10.4 mph - N/A Snow Light Snow
11:55 PM 10.4 °F -1.5 °F 5.9 °F 82% 30.17 in 4.0 mi NNE 8.1 mph - N/A Snow Light Snow